.
WxDataArchive / Data Records for 2015-09-27
2015-09-26 September 2015 2015-09-28

Data Records for Sunday, 27 September 2015

Time	Temp	Chill	HIndex	Humid	Dewpt	 Wind 	HiWind	WindDir	Rain 	Barom
-----	----	-----	------	-----	-----	------	------	-------	-----	-----
00:00	68.8	68.8	68.8	66	57.0	0	2	135	0.00	30.178 
00:05	68.6	68.6	68.6	67	57.2	0	1	135	0.00	30.178 
00:10	68.6	68.6	68.6	67	57.2	0	1	135	0.00	30.178 
00:15	68.4	68.4	68.4	68	57.4	0	1	135	0.00	30.172 
00:20	68.4	68.4	68.4	68	57.4	0	2	135	0.00	30.172 
00:25	68.3	68.3	68.3	68	57.3	0	1	135	0.00	30.172 
00:30	68.3	68.3	68.3	69	57.7	0	1	135	0.00	30.169 
00:35	68.1	68.1	68.1	69	57.5	0	0	---	0.00	30.169 
00:40	68.1	68.1	68.1	69	57.5	0	0	---	0.00	30.169 
00:45	67.9	67.9	67.9	70	57.7	0	0	---	0.00	30.166 
00:50	67.8	67.8	67.8	70	57.6	0	0	---	0.00	30.166 
00:55	67.8	67.8	67.8	71	58.0	0	0	---	0.00	30.166 
01:00	67.6	67.6	67.6	71	57.9	0	2	135	0.00	30.165 
01:05	67.6	67.6	67.6	71	57.9	0	1	135	0.00	30.165 
01:10	67.6	67.6	67.6	70	57.5	0	1	135	0.00	30.165 
01:15	67.8	67.8	67.8	71	58.0	1	3	45	0.00	30.162 
01:20	67.8	67.8	67.8	72	58.4	1	4	135	0.00	30.162 
01:25	67.9	67.9	67.9	73	58.9	0	2	68	0.00	30.162 
01:30	67.9	67.9	67.9	73	58.9	0	2	90	0.00	30.158 
01:35	67.8	67.8	67.8	74	59.2	0	1	90	0.00	30.158 
01:40	67.6	67.6	67.6	75	59.4	0	1	90	0.00	30.158 
01:45	67.4	67.4	67.4	77	59.9	0	1	90	0.00	30.154 
01:50	67.1	67.1	67.1	77	59.6	0	2	90	0.00	30.154 
01:55	66.9	66.9	66.9	78	59.8	0	1	90	0.00	30.154 
02:00	66.8	66.8	66.8	79	60.1	0	1	90	0.00	30.146 
02:05	66.6	66.6	66.6	80	60.2	0	1	90	0.00	30.146 
02:10	66.4	66.4	66.4	80	60.0	0	1	90	0.00	30.146 
02:15	66.3	66.3	66.3	81	60.3	0	1	90	0.00	30.145 
02:20	66.1	66.1	66.1	81	60.1	0	0	---	0.00	30.145 
02:25	66.1	66.1	66.1	81	60.1	0	0	---	0.00	30.145 
02:30	66.0	66.0	66.0	82	60.3	0	0	---	0.00	30.144 
02:35	65.8	65.8	65.8	82	60.1	0	1	90	0.00	30.144 
02:40	65.8	65.8	65.8	82	60.1	0	0	---	0.00	30.144 
02:45	65.6	65.6	65.6	83	60.3	0	0	---	0.00	30.144 
02:50	65.5	65.5	65.5	83	60.2	0	0	---	0.00	30.144 
02:55	65.5	65.5	65.5	83	60.2	0	1	90	0.00	30.144 
03:00	65.3	65.3	65.3	84	60.3	0	1	90	0.00	30.140 
03:05	65.2	65.2	65.2	84	60.2	0	0	---	0.00	30.140 
03:10	65.0	65.0	65.0	84	60.0	0	0	---	0.00	30.140 
03:15	64.8	64.8	64.8	84	59.8	0	1	90	0.00	30.135 
03:20	64.7	64.7	64.7	85	60.1	0	0	---	0.00	30.135 
03:25	64.5	64.5	64.5	85	59.9	0	0	---	0.00	30.135 
03:30	64.5	64.5	64.5	85	59.9	0	1	90	0.00	30.130 
03:35	64.3	64.3	64.3	85	59.7	0	0	---	0.00	30.130 
03:40	64.2	64.2	64.2	85	59.6	0	0	---	0.00	30.130 
03:45	64.0	64.0	64.0	85	59.4	0	0	---	0.00	30.129 
03:50	63.9	63.9	63.9	86	59.6	0	0	---	0.00	30.129 
03:55	63.7	63.7	63.7	86	59.4	0	0	---	0.00	30.129 
04:00	63.5	63.5	63.5	86	59.2	0	0	---	0.00	30.129 
04:05	63.4	63.4	63.4	86	59.1	0	1	90	0.00	30.129 
04:10	63.2	63.2	63.2	87	59.3	0	0	---	0.00	30.129 
04:15	63.1	63.1	63.1	87	59.2	0	1	90	0.00	30.125 
04:20	62.9	62.9	62.9	87	59.0	0	1	90	0.00	30.125 
04:25	62.7	62.7	62.7	87	58.8	0	1	90	0.00	30.125 
04:30	62.7	62.7	62.7	87	58.8	0	1	90	0.00	30.123 
04:35	62.6	62.6	62.6	86	58.3	0	2	90	0.00	30.123 
04:40	62.6	62.6	62.6	86	58.3	0	2	90	0.00	30.123 
04:45	62.6	62.6	62.6	85	58.0	0	1	90	0.00	30.119 
04:50	62.6	62.6	62.6	84	57.7	0	1	90	0.00	30.119 
04:55	62.4	62.4	62.4	84	57.5	0	1	90	0.00	30.119 
05:00	62.4	62.4	62.4	84	57.5	0	1	90	0.00	30.120 
05:05	62.3	62.3	62.3	84	57.4	0	1	90	0.00	30.120 
05:10	62.1	62.1	62.1	84	57.2	0	1	90	0.00	30.120 
05:15	62.1	62.1	62.1	84	57.2	0	1	90	0.00	30.124 
05:20	62.0	62.0	62.0	83	56.8	0	1	90	0.00	30.124 
05:25	61.8	61.8	61.8	83	56.6	0	0	---	0.00	30.124 
05:30	61.6	61.6	61.6	83	56.4	0	1	90	0.00	30.127 
05:35	61.5	61.5	61.5	83	56.3	0	1	90	0.00	30.127 
05:40	61.5	61.5	61.5	83	56.3	0	1	90	0.00	30.127 
05:45	61.5	61.5	61.5	82	55.9	0	1	90	0.00	30.127 
05:50	61.5	61.5	61.5	82	55.9	0	1	90	0.00	30.127 
05:55	61.5	61.5	61.5	81	55.6	0	1	90	0.00	30.127 
06:00	61.5	61.5	61.5	81	55.6	0	1	90	0.00	30.126 
06:05	61.5	61.5	61.5	81	55.6	0	1	90	0.00	30.126 
06:10	61.3	61.3	61.3	81	55.4	0	1	90	0.00	30.126 
06:15	61.3	61.3	61.3	80	55.1	0	3	90	0.00	30.126 
06:20	61.2	61.2	61.2	80	55.0	0	1	90	0.00	30.126 
06:25	61.2	61.2	61.2	80	55.0	0	1	90	0.00	30.126 
06:30	61.0	61.0	61.0	80	54.8	0	1	90	0.00	30.130 
06:35	61.0	61.0	61.0	80	54.8	0	1	90	0.00	30.130 
06:40	60.9	60.9	60.9	80	54.7	0	1	90	0.00	30.130 
06:45	60.9	60.9	60.9	80	54.7	0	0	---	0.00	30.133 
06:50	60.7	60.7	60.7	80	54.5	0	1	90	0.00	30.133 
06:55	60.5	60.5	60.5	81	54.6	0	0	---	0.00	30.133 
07:00	60.4	60.4	60.4	81	54.5	0	1	90	0.00	30.133 
07:05	60.4	60.4	60.4	81	54.5	0	1	90	0.00	30.133 
07:10	60.2	60.2	60.2	81	54.3	0	1	90	0.00	30.133 
07:15	60.1	60.1	60.1	81	54.2	0	0	---	0.00	30.139 
07:20	59.9	59.9	59.9	81	54.1	0	0	---	0.00	30.139 
07:25	59.8	59.8	59.8	81	54.0	0	0	---	0.00	30.139 
07:30	59.8	59.8	59.8	81	54.0	0	1	90	0.00	30.139 
07:35	59.8	59.8	59.8	81	54.0	0	1	90	0.00	30.139 
07:40	59.9	59.9	59.9	80	53.7	0	1	90	0.00	30.139 
07:45	60.1	60.1	60.1	80	53.9	0	1	90	0.00	30.139 
07:50	60.2	60.2	60.2	80	54.0	0	1	90	0.00	30.139 
07:55	60.2	60.2	60.2	80	54.0	0	1	90	0.00	30.139 
08:00	60.2	60.2	60.2	80	54.0	0	0	---	0.00	30.141 
08:05	60.2	60.2	60.2	80	54.0	0	0	---	0.00	30.141 
08:10	60.2	60.2	60.2	79	53.7	0	0	---	0.00	30.141 
08:15	60.4	60.4	60.4	79	53.9	0	1	90	0.00	30.149 
08:20	60.4	60.4	60.4	78	53.5	0	1	90	0.00	30.149 
08:25	60.5	60.5	60.5	78	53.6	0	0	---	0.00	30.149 
08:30	60.7	60.7	60.7	78	53.8	0	1	90	0.00	30.148 
08:35	60.9	60.9	60.9	78	54.0	0	1	90	0.00	30.148 
08:40	61.2	61.2	61.2	77	53.9	0	1	90	0.00	30.148 
08:45	61.6	61.6	61.6	76	54.0	0	3	90	0.00	30.144 
08:50	62.0	62.0	62.0	75	54.0	0	1	90	0.00	30.144 
08:55	62.4	62.4	62.4	75	54.4	0	2	90	0.00	30.144 
09:00	62.7	62.7	62.7	73	53.9	0	2	90	0.00	30.142 
09:05	63.2	63.2	63.2	73	54.4	0	1	90	0.00	30.142 
09:10	63.4	63.4	63.4	72	54.2	0	1	90	0.00	30.142 
09:15	63.7	63.7	63.7	72	54.5	0	2	90	0.00	30.138 
09:20	63.9	63.9	63.9	72	54.7	0	1	90	0.00	30.138 
09:25	64.0	64.0	64.0	71	54.4	0	2	90	0.00	30.138 
09:30	64.0	64.0	64.0	71	54.4	1	4	90	0.00	30.144 
09:35	64.2	64.2	64.2	71	54.6	0	3	90	0.00	30.144 
09:40	64.3	64.3	64.3	71	54.7	0	2	90	0.00	30.144 
09:45	64.5	64.5	64.5	70	54.5	0	2	68	0.00	30.145 
09:50	64.7	64.7	64.7	70	54.7	0	2	68	0.00	30.145 
09:55	65.0	65.0	65.0	70	55.0	0	1	68	0.00	30.145 
10:00	65.2	65.2	65.2	70	55.2	0	1	68	0.00	30.148 
10:05	65.5	65.5	65.5	69	55.1	0	1	68	0.00	30.148 
10:10	65.8	65.8	65.8	69	55.3	0	2	68	0.00	30.148 
10:15	66.0	66.0	66.0	68	55.1	0	3	68	0.00	30.146 
10:20	66.4	66.4	66.4	68	55.5	1	2	68	0.00	30.146 
10:25	66.9	66.9	66.9	67	55.6	0	2	68	0.00	30.146 
10:30	67.6	67.6	67.6	65	55.4	0	2	68	0.00	30.144 
10:35	68.4	68.4	68.4	64	55.7	0	4	90	0.00	30.144 
10:40	69.4	69.4	69.4	62	55.8	0	2	90	0.00	30.144 
10:45	70.1	70.1	70.1	61	56.0	0	2	90	0.00	30.141 
10:50	70.9	70.9	70.9	59	55.8	0	3	68	0.00	30.141 
10:55	71.6	71.6	71.6	58	56.0	1	3	112	0.00	30.141 
11:00	72.0	72.0	72.0	60	57.3	0	4	112	0.00	30.136 
11:05	72.5	72.5	72.5	58	56.9	0	4	90	0.00	30.136 
11:10	72.7	72.7	72.7	58	57.1	0	2	90	0.00	30.136 
11:15	73.0	73.0	73.0	59	57.8	0	1	90	0.00	30.131 
11:20	73.5	73.5	73.5	58	57.8	0	3	90	0.00	30.131 
11:25	74.0	74.0	74.0	56	57.3	0	3	90	0.00	30.131 
11:30	74.4	74.4	74.4	55	57.2	1	3	90	0.00	30.126 
11:35	74.7	74.7	74.7	55	57.4	1	3	90	0.00	30.126 
11:40	74.9	74.9	74.9	55	57.6	0	2	90	0.00	30.126 
11:45	75.3	75.3	77.7	55	58.0	0	2	90	0.00	30.124 
11:50	75.1	75.1	77.6	54	57.3	0	2	90	0.00	30.124 
11:55	75.3	75.3	77.7	54	57.5	1	4	112	0.00	30.124 
12:00	75.3	75.3	77.7	55	58.0	1	2	112	0.00	30.119 
12:05	75.3	75.3	77.7	56	58.5	1	3	112	0.00	30.119 
12:10	75.1	75.1	77.6	54	57.3	2	5	112	0.00	30.119 
12:15	74.7	74.7	74.7	56	57.9	1	3	90	0.00	30.113 
12:20	75.1	75.1	77.5	58	59.3	0	3	68	0.00	30.113 
12:25	75.6	75.6	77.8	56	58.8	0	1	68	0.00	30.113 
12:30	76.3	76.3	78.3	54	58.4	0	2	68	0.00	30.108 
12:35	76.5	76.5	78.4	54	58.6	1	3	90	0.00	30.108 
12:40	76.3	76.3	78.3	55	58.9	0	2	68	0.00	30.108 
12:45	76.3	76.3	78.3	54	58.4	0	3	68	0.00	30.107 
12:50	76.5	76.5	78.4	53	58.1	1	3	68	0.00	30.107 
12:55	76.7	76.7	78.5	54	58.8	0	2	68	0.00	30.107 
13:00	76.8	76.8	78.6	54	58.9	1	4	112	0.00	30.098 
13:05	77.0	77.0	78.7	54	59.1	0	3	90	0.00	30.098 
13:10	77.4	77.4	78.9	52	58.4	1	4	90	0.00	30.098 
13:15	77.7	77.7	79.2	54	59.7	0	2	90	0.00	30.094 
13:20	78.1	78.1	79.5	54	60.1	0	2	90	0.00	30.094 
13:25	78.5	78.5	79.8	53	59.9	0	2	112	0.00	30.094 
13:30	78.5	78.5	79.7	52	59.4	0	1	112	0.00	30.088 
13:35	78.5	78.5	79.6	51	58.8	0	2	112	0.00	30.088 
13:40	78.5	78.5	79.8	53	59.9	0	1	112	0.00	30.088 
13:45	78.3	78.3	79.7	54	60.3	1	3	135	0.00	30.084 
13:50	77.9	77.9	79.3	52	58.8	0	3	180	0.00	30.084 
13:55	78.1	78.1	79.4	52	59.0	1	4	90	0.00	30.084 
14:00	78.5	78.5	79.6	51	58.8	0	2	90	0.00	30.078 
14:05	78.5	78.5	79.8	53	59.9	1	3	112	0.00	30.078 
14:10	78.1	78.1	79.4	52	59.0	0	2	112	0.00	30.078 
14:15	77.9	77.9	79.3	52	58.8	1	2	112	0.00	30.070 
14:20	78.3	78.3	79.6	52	59.2	1	4	90	0.00	30.070 
14:25	78.5	78.5	79.7	52	59.4	1	4	68	0.00	30.070 
14:30	78.6	78.6	79.7	51	58.9	2	5	68	0.00	30.061 
14:35	78.8	78.8	79.9	52	59.7	0	2	90	0.00	30.061 
14:40	79.0	79.0	80.0	51	59.3	1	4	90	0.00	30.061 
14:45	79.2	79.2	80.2	51	59.5	1	3	68	0.00	30.055 
14:50	79.4	79.4	80.3	50	59.1	0	1	68	0.00	30.055 
14:55	79.8	79.8	80.6	50	59.5	1	3	68	0.00	30.055 
15:00	79.8	79.8	80.5	49	58.9	1	4	112	0.00	30.048 
15:05	79.8	79.8	80.6	50	59.5	0	2	112	0.00	30.048 
15:10	79.6	79.6	80.4	49	58.7	1	3	112	0.00	30.048 
15:15	79.2	79.2	80.1	50	58.9	1	3	112	0.00	30.047 
15:20	79.0	79.0	80.0	50	58.7	0	2	112	0.00	30.047 
15:25	79.0	79.0	80.2	53	60.4	0	2	112	0.00	30.047 
15:30	79.4	79.4	80.5	52	60.2	0	3	112	0.00	30.039 
15:35	79.6	79.6	80.4	49	58.7	1	4	112	0.00	30.039 
15:40	79.4	79.4	80.3	50	59.1	1	4	90	0.00	30.039 
15:45	79.0	79.0	80.0	50	58.7	0	2	90	0.00	30.032 
15:50	79.0	79.0	80.2	53	60.4	0	2	90	0.00	30.032 
15:55	79.4	79.4	80.4	51	59.7	0	3	90	0.00	30.032 
16:00	79.9	79.9	80.6	49	59.0	0	1	90	0.00	30.026 
16:05	79.9	79.9	80.6	49	59.0	0	3	90	0.00	30.026 
16:10	79.8	79.8	80.5	49	58.9	0	3	90	0.00	30.026 
16:15	79.6	79.6	80.5	50	59.3	0	4	90	0.00	30.028 
16:20	79.4	79.4	80.3	50	59.1	1	4	90	0.00	30.028 
16:25	79.0	79.0	80.0	50	58.7	0	3	90	0.00	30.028 
16:30	78.8	78.8	79.9	51	59.1	0	1	90	0.00	30.026 
16:35	79.0	79.0	80.0	50	58.7	0	2	90	0.00	30.026 
16:40	79.2	79.2	80.1	50	58.9	0	2	90	0.00	30.026 
16:45	79.4	79.4	80.3	50	59.1	0	2	90	0.00	30.019 
16:50	79.2	79.2	80.1	50	58.9	0	1	90	0.00	30.019 
16:55	79.2	79.2	80.1	50	58.9	0	2	90	0.00	30.019 
17:00	78.8	78.8	79.9	51	59.1	0	1	90	0.00	30.018 
17:05	78.6	78.6	79.7	51	58.9	0	2	90	0.00	30.018 
17:10	78.3	78.3	79.6	52	59.2	0	2	90	0.00	30.018 
17:15	78.3	78.3	79.6	53	59.7	0	1	90	0.00	30.017 
17:20	78.3	78.3	79.6	52	59.2	0	1	90	0.00	30.017 
17:25	78.3	78.3	79.7	54	60.3	0	1	90	0.00	30.017 
17:30	78.5	78.5	79.8	53	59.9	0	1	90	0.00	30.016 
17:35	78.5	78.5	79.7	52	59.4	0	3	90	0.00	30.016 
17:40	78.5	78.5	79.8	53	59.9	0	1	90	0.00	30.016 
17:45	78.6	78.6	79.8	52	59.5	0	1	90	0.00	30.016 
17:50	78.6	78.6	79.8	53	60.0	0	2	90	0.00	30.016 
17:55	78.6	78.6	79.8	52	59.5	0	3	90	0.00	30.016 
18:00	78.6	78.6	79.8	53	60.0	0	1	90	0.00	30.017 
18:05	78.5	78.5	79.8	53	59.9	0	1	90	0.00	30.017 
18:10	78.1	78.1	79.5	53	59.6	0	2	90	0.00	30.017 
18:15	77.9	77.9	79.3	53	59.4	0	0	---	0.00	30.017 
18:20	77.7	77.7	79.2	53	59.2	0	1	90	0.00	30.017 
18:25	77.6	77.6	79.1	54	59.6	0	1	90	0.00	30.017 
18:30	77.4	77.4	79.0	54	59.4	0	0	---	0.00	30.018 
18:35	77.4	77.4	79.0	55	59.9	0	0	---	0.00	30.018 
18:40	77.2	77.2	78.9	56	60.3	0	0	---	0.00	30.018 
18:45	77.0	77.0	78.7	55	59.6	0	0	---	0.00	30.018 
18:50	76.8	76.8	78.6	56	59.9	0	0	---	0.00	30.018 
18:55	76.8	76.8	78.6	55	59.4	0	0	---	0.00	30.018 
19:00	76.7	76.7	78.5	56	59.8	0	0	---	0.00	30.018 
19:05	76.7	76.7	78.5	56	59.8	0	1	90	0.00	30.018 
19:10	76.5	76.5	78.4	56	59.6	0	0	---	0.00	30.018 
19:15	76.5	76.5	78.4	58	60.6	0	0	---	0.00	30.018 
19:20	76.3	76.3	78.3	57	59.9	0	1	90	0.00	30.018 
19:25	76.1	76.1	78.1	59	60.7	0	0	---	0.00	30.018 
19:30	75.8	75.8	77.9	60	60.9	0	2	90	0.00	30.019 
19:35	75.6	75.6	77.8	59	60.2	0	1	90	0.00	30.019 
19:40	75.4	75.4	77.6	60	60.5	0	0	---	0.00	30.019 
19:45	75.3	75.3	77.5	60	60.4	0	0	---	0.00	30.022 
19:50	75.1	75.1	77.4	61	60.7	0	0	---	0.00	30.022 
19:55	74.9	74.9	74.9	61	60.5	0	0	---	0.00	30.022 
20:00	74.7	74.7	74.7	62	60.8	0	0	---	0.00	30.021 
20:05	74.4	74.4	74.4	62	60.5	0	0	---	0.00	30.021 
20:10	74.2	74.2	74.2	62	60.3	0	0	---	0.00	30.021 
20:15	74.0	74.0	74.0	64	61.0	0	0	---	0.00	30.021 
20:20	73.9	73.9	73.9	64	60.9	0	0	---	0.00	30.021 
20:25	73.7	73.7	73.7	65	61.2	0	0	---	0.00	30.021 
20:30	73.5	73.5	73.5	65	61.0	0	0	---	0.00	30.022 
20:35	73.3	73.3	73.3	66	61.2	0	0	---	0.00	30.022 
20:40	73.2	73.2	73.2	66	61.1	0	0	---	0.00	30.022 
20:45	73.0	73.0	73.0	67	61.4	0	0	---	0.00	30.025 
20:50	73.0	73.0	73.0	68	61.8	0	0	---	0.00	30.025 
20:55	72.8	72.8	72.8	72	63.2	0	0	---	0.00	30.025 
21:00	72.7	72.7	72.7	73	63.5	0	0	---	0.00	30.029 
21:05	72.5	72.5	72.5	74	63.7	0	0	---	0.00	30.029 
21:10	72.1	72.1	72.1	74	63.3	0	0	---	0.00	30.029 
21:15	72.0	72.0	72.0	73	62.9	0	0	---	0.00	30.034 
21:20	71.8	71.8	71.8	73	62.7	0	0	---	0.00	30.034 
21:25	71.6	71.6	71.6	74	62.9	0	0	---	0.00	30.034 
21:30	71.5	71.5	71.5	75	63.1	0	0	---	0.00	30.033 
21:35	71.5	71.5	71.5	76	63.5	0	0	---	0.00	30.033 
21:40	71.3	71.3	71.3	76	63.3	0	0	---	0.00	30.033 
21:45	71.3	71.3	71.3	77	63.7	0	0	---	0.00	30.036 
21:50	71.3	71.3	71.3	77	63.7	0	0	---	0.00	30.036 
21:55	71.1	71.1	71.1	78	63.9	0	0	---	0.00	30.036 
22:00	71.1	71.1	71.1	78	63.9	0	0	---	0.00	30.035 
22:05	70.9	70.9	70.9	78	63.7	0	0	---	0.00	30.035 
22:10	70.8	70.8	70.8	79	64.0	0	0	---	0.00	30.035 
22:15	70.8	70.8	70.8	79	64.0	0	0	---	0.00	30.029 
22:20	70.6	70.6	70.6	79	63.8	0	0	---	0.00	30.029 
22:25	70.6	70.6	70.6	80	64.1	0	0	---	0.00	30.029 
22:30	70.4	70.4	70.4	80	63.9	0	0	---	0.00	30.029 
22:35	70.3	70.3	70.3	80	63.8	0	0	---	0.00	30.029 
22:40	70.3	70.3	70.3	80	63.8	0	0	---	0.00	30.029 
22:45	70.1	70.1	70.1	79	63.3	0	0	---	0.00	30.030 
22:50	70.1	70.1	70.1	79	63.3	0	0	---	0.00	30.030 
22:55	70.1	70.1	70.1	78	62.9	0	0	---	0.00	30.030 
23:00	70.1	70.1	70.1	77	62.5	0	0	---	0.00	30.032 
23:05	70.1	70.1	70.1	76	62.2	0	1	90	0.00	30.032 
23:10	70.3	70.3	70.3	74	61.6	0	1	90	0.00	30.032 
23:15	70.4	70.4	70.4	73	61.3	0	1	90	0.00	30.030 
23:20	70.8	70.8	70.8	72	61.3	0	2	90	0.00	30.030 
23:25	70.9	70.9	70.9	71	61.0	0	0	---	0.00	30.030 
23:30	71.1	71.1	71.1	71	61.2	0	1	90	0.00	30.028 
23:35	71.3	71.3	71.3	71	61.4	0	1	90	0.00	30.028 
23:40	71.3	71.3	71.3	71	61.4	0	1	90	0.00	30.028 
23:45	71.3	71.3	71.3	71	61.4	0	0	---	0.00	30.028 
23:50	71.1	71.1	71.1	72	61.6	0	2	90	0.00	30.028 
23:55	71.1	71.1	71.1	73	62.0	0	1	90	0.00	30.028 

CoCoRaHS
IN-AL-39
A2 Web Hosting
Creative Commons License
GoDaddy
search engine by freefind advanced

loaded 2018-11-15 16:10:57 • last modified 2010-11-18 10:43:29
Privacy PolicyDisclaimer
• wx.awcolley.com is powered by PmWiki v.2002016 •
• all content (unless otherwise noted) © 2018 A W Colley